Time;durP1;ratioP1;P1;durP2;ratioP2;P2;SDS_P1;SDS_P2;PMS_P1;PMS_P2;Temp;Humidity;BMP_temperature;BMP_pressure;BME280_temperature;BME280_humidity;BME280_pressure;Samples;Min_cycle;Max_cycle;Signal;HPM_P1;HPM_P2
2022/05/30 00:02:58;;;;;;;;;;;23.70;33.40;;;;;;20922930;28;20052;-60
2022/05/30 00:13:00;;;;;;;5.05;3.30;;;23.60;33.70;;;;;;20925634;28;19921;-72
2022/05/30 00:23:03;;;;;;;9.90;6.27;;;23.40;34.50;;;;;;20924818;28;20045;-70
2022/05/30 00:33:05;;;;;;;5.50;3.42;;;23.20;35.20;;;;;;20924791;28;20077;-66
2022/05/30 00:43:22;;;;;;;8.17;4.57;;;23.20;35.50;;;;;;20923439;28;20047;-70
2022/05/30 00:53:24;;;;;;;8.07;3.28;;;23.10;36.00;;;;;;20921914;28;20048;-61
2022/05/30 01:13:50;;;;;;;8.45;3.70;;;22.80;37.10;;;;;;20919674;28;20099;-71
2022/05/30 01:24:19;;;;;;;5.35;3.38;;;22.80;37.60;;;;;;20919724;28;20052;-71
2022/05/30 01:34:23;;;;;;;10.18;4.65;;;22.50;38.20;;;;;;20919470;28;20144;-67
2022/05/30 01:44:27;;;;;;;9.68;3.58;;;22.20;38.90;;;;;;20917665;28;20044;-69
2022/05/30 01:54:33;;;;;;;5.97;3.28;;;22.40;38.90;;;;;;20917018;28;20055;-61
2022/05/30 02:04:35;;;;;;;7.85;4.15;;;22.30;39.30;;;;;;20914507;28;20049;-61
2022/05/30 02:14:40;;;;;;;6.38;3.45;;;22.20;40.00;;;;;;20915288;28;20080;-70
2022/05/30 02:24:43;;;;;;;8.68;2.95;;;22.30;40.20;;;;;;20913393;28;20071;-60
2022/05/30 02:45:08;;;;;;;6.90;3.45;;;22.10;41.80;;;;;;20913321;28;20045;-60
2022/05/30 02:55:10;;;;;;;6.13;3.38;;;22.00;42.50;;;;;;20913205;28;20148;-60
2022/05/30 03:05:13;;;;;;;5.80;3.40;;;21.90;42.70;;;;;;20912334;28;20524;-69
2022/05/30 03:15:16;;;;;;;8.40;3.33;;;21.90;42.90;;;;;;20912362;28;20128;-68
2022/05/30 03:25:18;;;;;;;8.43;3.30;;;21.60;44.10;;;;;;20911971;28;20126;-64
2022/05/30 03:35:20;;;;;;;5.40;2.88;;;21.50;44.90;;;;;;20921476;28;20507;-67
2022/05/30 03:45:23;;;;;;;7.37;3.37;;;21.30;45.90;;;;;;20927456;28;20103;-70
2022/05/30 03:55:25;;;;;;;6.93;3.33;;;21.20;46.20;;;;;;20926608;28;20071;-66
2022/05/30 04:05:27;;;;;;;7.25;3.10;;;21.10;47.10;;;;;;20925700;28;20055;-63
2022/05/30 04:15:29;;;;;;;7.10;2.87;;;21.10;47.40;;;;;;20924871;28;20052;-66
2022/05/30 04:25:31;;;;;;;5.77;2.97;;;20.80;48.60;;;;;;20924262;28;20053;-67
2022/05/30 04:35:33;;;;;;;8.50;3.17;;;20.70;49.00;;;;;;20923925;28;20057;-60
2022/05/30 04:45:38;;;;;;;8.33;3.53;;;;;;;;;;20953409;28;20052;-68
2022/05/30 04:55:41;;;;;;;5.43;2.83;;;;;;;;;;20920988;28;20345;-61
2022/05/30 05:05:43;;;;;;;7.38;3.92;;;;;;;;;;20920354;28;20128;-64
2022/05/30 05:15:45;;;;;;;8.67;3.23;;;;;;;;;;20920389;28;20060;-63
2022/05/30 05:25:48;;;;;;;9.30;4.50;;;;;;;;;;20919317;28;20041;-63
2022/05/30 05:35:50;;;;;;;8.90;3.17;;;;;;;;;;20918579;28;20462;-62
2022/05/30 05:45:52;;;;;;;7.35;3.47;;;;;;;;;;20917808;28;20059;-58
2022/05/30 05:55:54;;;;;;;9.63;3.83;;;;;;;;;;20917610;28;20068;-60
2022/05/30 06:05:56;;;;;;;12.38;4.57;;;;;;;;;;20916401;28;20051;-60
2022/05/30 06:15:58;;;;;;;8.25;3.50;;;;;;;;;;20914611;28;20140;-63
2022/05/30 06:26:04;;;;;;;10.48;3.67;;;;;;;;;;20914607;28;20048;-62
2022/05/30 06:36:08;;;;;;;11.10;4.38;;;;;;;;;;20913832;28;20053;-60
2022/05/30 06:46:10;;;;;;;6.20;3.33;;;;;;;;;;20914137;28;20421;-59
2022/05/30 06:56:14;;;;;;;7.67;3.00;;;;;;;;;;20912794;28;20057;-60
2022/05/30 07:06:27;;;;;;;7.10;2.92;;;;;;;;;;20912274;28;20044;-64
2022/05/30 07:16:29;;;;;;;8.53;4.20;;;;;;;;;;20911022;28;20056;-59
2022/05/30 07:26:31;;;;;;;6.73;2.77;;;;;;;;;;20911237;28;20052;-60
2022/05/30 07:36:35;;;;;;;7.68;3.30;;;;;;;;;;20911230;28;20057;-59
2022/05/30 07:46:39;;;;;;;6.35;2.60;;;;;;;;;;20911589;28;20041;-59
2022/05/30 07:56:42;;;;;;;6.35;2.72;;;;;;;;;;20910569;28;20052;-60
2022/05/30 08:06:44;;;;;;;;;;;;;;;;;;20910672;28;20041;-60
2022/05/30 08:16:46;;;;;;;7.32;2.90;;;;;;;;;;20910429;28;19920;-60
2022/05/30 08:26:48;;;;;;;9.60;3.10;;;;;;;;;;20924673;28;20136;-68
2022/05/30 08:36:52;;;;;;;7.20;3.50;;;;;;;;;;20923250;28;20128;-65
2022/05/30 08:46:57;;;;;;;11.00;2.60;;;;;;;;;;20922498;28;20061;-69
2022/05/30 08:57:01;;;;;;;5.97;2.80;;;;;;;;;;20922274;28;20414;-67
2022/05/30 09:07:13;;;;;;;7.30;2.38;;;;;;;;;;20920006;28;20041;-71
2022/05/30 09:17:42;;;;;;;6.90;3.10;;;;;;;;;;20920393;28;20390;-69
2022/05/30 09:27:44;;;;;;;5.35;2.50;;;;;;;;;;20919339;28;20056;-63
2022/05/30 09:37:46;;;;;;;10.48;2.55;;;;;;;;;;20917228;28;20064;-59
2022/05/30 09:48:02;;;;;;;25.63;22.25;;;;;;;;;;20848308;28;20053;-55
2022/05/30 09:58:07;;;;;;;6.95;2.92;;;;;;;;;;20833619;28;20049;-56
2022/05/30 10:08:24;;;;;;;7.47;2.67;;;;;;;;;;20833285;28;20057;-56
2022/05/30 10:18:28;;;;;;;7.50;2.25;;;;;;;;;;20846337;28;20048;-54
2022/05/30 10:28:49;;;;;;;6.25;2.38;;;;;;;;;;20987994;28;20049;-56
2022/05/30 10:39:01;;;;;;;6.75;2.17;;;;;;;;;;20996926;28;20064;-56
2022/05/30 10:49:14;;;;;;;5.70;2.10;;;;;;;;;;20994493;28;20490;-54
2022/05/30 10:59:35;;;;;;;6.40;2.38;;;;;;;;;;20977765;28;20044;-58
2022/05/30 11:10:03;;;;;;;6.60;2.30;;;;;;;;;;20979739;28;20153;-57
2022/05/30 11:20:10;;;;;;;3.90;2.00;;;;;;;;;;20869186;28;20045;-56
2022/05/30 11:30:31;;;;;;;7.60;2.20;;;;;;;;;;20867650;28;20060;-57
2022/05/30 11:40:49;;;;;;;3.40;1.90;;;;;;;;;;20886267;28;20044;-57
2022/05/30 11:50:58;;;;;;;4.22;1.98;;;;;;;;;;20908593;28;20118;-57
2022/05/30 12:01:03;;;;;;;4.50;2.28;;;;;;;;;;20925721;28;20056;-56
2022/05/30 12:11:08;;;;;;;5.15;1.90;;;;;;;;;;20956614;28;20053;-59
2022/05/30 12:31:41;;;;;;;3.38;2.00;;;;;;;;;;20924230;28;20436;-67
2022/05/30 12:41:59;;;;;;;4.70;2.30;;;;;;;;;;20954884;28;20440;-68
2022/05/30 12:52:04;;;;;;;5.30;2.20;;;;;;;;;;20921286;28;20053;-58
2022/05/30 13:02:07;;;;;;;4.05;2.00;;;;;;;;;;20921282;28;20075;-59
2022/05/30 13:12:09;;;;;;;3.55;2.35;;;;;;;;;;20920872;28;20576;-66
2022/05/30 13:22:13;;;;;;;7.50;2.60;;;;;;;;;;20921452;28;20053;-61
2022/05/30 13:32:18;;;;;;;6.60;1.77;;;;;;;;;;20919131;28;20053;-62
2022/05/30 13:42:20;;;;;;;4.47;2.47;;;;;;;;;;20918662;28;20180;-68
2022/05/30 13:52:24;;;;;;;3.63;1.67;;;;;;;;;;20917777;28;20056;-66
2022/05/30 14:02:31;;;;;;;4.97;2.03;;;;;;;;;;20917160;28;20055;-70
2022/05/30 14:12:41;;;;;;;5.07;2.05;;;;;;;;;;20917082;28;20082;-68
2022/05/30 14:22:51;;;;;;;4.28;2.10;;;;;;;;;;20914080;28;20063;-67
2022/05/30 14:33:06;;;;;;;6.03;2.38;;;;;;;;;;20914054;28;20477;-63
2022/05/30 14:43:24;;;;;;;3.80;1.90;;;;;;;;;;20913034;28;20467;-61
2022/05/30 14:53:28;;;;;;;11.48;5.40;;;;;;;;;;20912363;28;20135;-61
2022/05/30 15:13:54;;;;;;;7.20;2.83;;;;;;;;;;20911913;28;20087;-63
2022/05/30 15:23:56;;;;;;;9.95;2.80;;;;;;;;;;20912935;28;20056;-63
2022/05/30 15:33:59;;;;;;;7.68;2.45;;;;;;;;;;20925969;28;20118;-62
2022/05/30 15:44:01;;;;;;;;;;;;;;;;;;20928278;28;20060;-63
2022/05/30 16:04:24;;;;;;;4.10;2.00;;;;;;;;;;20926083;28;20049;-63
2022/05/30 16:14:26;;;;;;;5.70;2.20;;;;;;;;;;20924273;28;20045;-61
2022/05/30 16:24:28;;;;;;;;;;;;;;;;;;20925135;28;20167;-68
2022/05/30 16:34:30;;;;;;;11.97;3.23;;;;;;;;;;20922854;28;20013;-59
2022/05/30 16:44:32;;;;;;;4.90;1.90;;;;;;;;;;20921191;28;20053;-59
2022/05/30 16:54:34;;;;;;;6.97;2.05;;;;;;;;;;20920100;28;20056;-60
2022/05/30 17:04:36;;;;;;;5.07;1.77;;;;;;;;;;20919689;28;20064;-63
2022/05/30 17:14:38;;;;;;;;;;;;;;;;;;20921484;28;20053;-61
2022/05/30 17:24:40;;;;;;;4.53;2.07;;;;;;;;;;20920227;28;20007;-61
2022/05/30 17:34:44;;;;;;;7.43;2.53;;;;;;;;;;20918969;28;20127;-61
2022/05/30 17:44:46;;;;;;;5.10;2.28;;;;;;;;;;20918399;28;20049;-63
2022/05/30 17:54:49;;;;;;;4.63;1.90;;;;;;;;;;20916922;28;20110;-62
2022/05/30 18:04:51;;;;;;;4.60;2.50;;;;;;;;;;20916012;28;20412;-61
2022/05/30 18:14:53;;;;;;;;;;;;;;;;;;20916173;28;20052;-61
2022/05/30 18:25:10;;;;;;;6.67;2.17;;;;;;;;;;20915387;28;20059;-66
2022/05/30 18:35:22;;;;;;;4.68;2.28;;;;;;;;;;20915054;28;20053;-64
2022/05/30 18:45:26;;;;;;;6.72;3.03;;;;;;;;;;20912439;28;20076;-65
2022/05/30 18:55:28;;;;;;;7.28;2.53;;;;;;;;;;20912867;28;20048;-63
2022/05/30 19:05:30;;;;;;;;;;;;;;;;;;20913115;28;20102;-61
2022/05/30 19:25:53;;;;;;;5.07;2.30;;;;;;;;;;20912377;28;20079;-64
2022/05/30 19:35:55;;;;;;;6.75;2.50;;;;;;;;;;20911758;28;20056;-63
2022/05/30 19:45:59;;;;;;;4.82;1.85;;;;;;;;;;20910196;28;20114;-64
2022/05/30 19:56:01;;;;;;;8.48;3.00;;;;;;;;;;20910437;28;20088;-66
2022/05/30 20:06:03;;;;;;;;;;;;;;;;;;20911220;28;20050;-60
2022/05/30 20:16:09;;;;;;;8.60;3.08;;;;;;;;;;20915778;28;20357;-61
2022/05/30 20:26:11;;;;;;;;;;;;;;;;;;20924968;28;20473;-61
2022/05/30 20:36:13;;;;;;;8.40;3.08;;;;;;;;;;20923931;28;20380;-62
2022/05/30 20:46:15;;;;;;;;;;;;;;;;;;20923859;28;20514;-62
2022/05/30 20:56:18;;;;;;;7.72;2.60;;;;;;;;;;20923070;28;19975;-61
2022/05/30 21:06:20;;;;;;;;;;;;;;;;;;20922592;28;20040;-61
2022/05/30 21:16:26;;;;;;;4.95;2.33;;;;;;;;;;20921419;28;19932;-64
2022/05/30 21:26:29;;;;;;;8.38;2.88;;;;;;;;;;20919896;28;20048;-60
2022/05/30 21:36:34;;;;;;;5.27;2.57;;;;;;;;;;20920027;28;20049;-61
2022/05/30 21:46:37;;;;;;;9.32;3.72;;;;;;;;;;20919643;28;20045;-62
2022/05/30 21:56:43;;;;;;;6.78;3.28;;;;;;;;;;20918239;28;20555;-60
2022/05/30 22:06:45;;;;;;;6.78;3.05;;;;;;;;;;20918205;28;20056;-62
2022/05/30 22:16:48;;;;;;;6.63;3.57;;;;;;;;;;20916645;28;20053;-62
2022/05/30 22:26:50;;;;;;;4.72;2.05;;;;;;;;;;20916546;28;20408;-63
2022/05/30 22:36:52;;;;;;;7.73;2.67;;;;;;;;;;20915087;28;20126;-65
2022/05/30 22:46:54;;;;;;;7.97;2.90;;;;;;;;;;20915613;28;20562;-63
2022/05/30 22:56:57;;;;;;;6.40;3.00;;;;;;;;;;20914097;28;20053;-64
2022/05/30 23:06:59;;;;;;;5.60;2.05;;;;;;;;;;20914006;28;20060;-61
2022/05/30 23:17:04;;;;;;;6.50;3.25;;;;;;;;;;20913449;28;20132;-62
2022/05/30 23:27:06;;;;;;;4.75;2.20;;;;;;;;;;20913042;28;20521;-61
2022/05/30 23:37:08;;;;;;;5.53;2.03;;;;;;;;;;20912540;28;20049;-60
2022/05/30 23:47:12;;;;;;;3.83;2.10;;;;;;;;;;20912390;28;20045;-60
2022/05/30 23:57:15;;;;;;;3.88;2.38;;;;;;;;;;20928031;28;20417;-60
